sensor_id;sensor_type;location;lat;lon;timestamp;P1;durP1;ratioP1;P2;durP2;ratioP2
62419;SDS011;48460;51.616;5.426;2022-12-20T00:01:55;7.03;;;3.20;;
62419;SDS011;48460;51.616;5.426;2022-12-20T00:04:23;7.20;;;3.55;;
62419;SDS011;48460;51.616;5.426;2022-12-20T00:06:52;6.57;;;3.42;;
62419;SDS011;48460;51.616;5.426;2022-12-20T00:09:20;7.78;;;3.30;;
62419;SDS011;48460;51.616;5.426;2022-12-20T00:11:49;6.75;;;3.20;;
62419;SDS011;48460;51.616;5.426;2022-12-20T00:14:18;6.80;;;3.20;;
62419;SDS011;48460;51.616;5.426;2022-12-20T00:16:46;7.47;;;3.40;;
62419;SDS011;48460;51.616;5.426;2022-12-20T00:19:12;7.88;;;3.58;;
62419;SDS011;48460;51.616;5.426;2022-12-20T00:21:38;8.95;;;3.22;;
62419;SDS011;48460;51.616;5.426;2022-12-20T00:24:04;8.45;;;3.45;;
62419;SDS011;48460;51.616;5.426;2022-12-20T00:26:31;8.52;;;3.42;;
62419;SDS011;48460;51.616;5.426;2022-12-20T00:29:00;7.22;;;3.40;;
62419;SDS011;48460;51.616;5.426;2022-12-20T00:31:27;6.40;;;3.40;;
62419;SDS011;48460;51.616;5.426;2022-12-20T00:33:56;9.82;;;3.40;;
62419;SDS011;48460;51.616;5.426;2022-12-20T00:36:23;9.82;;;3.78;;
62419;SDS011;48460;51.616;5.426;2022-12-20T00:38:53;8.52;;;3.63;;
62419;SDS011;48460;51.616;5.426;2022-12-20T00:41:26;8.15;;;3.20;;
62419;SDS011;48460;51.616;5.426;2022-12-20T00:44:03;7.68;;;3.47;;
62419;SDS011;48460;51.616;5.426;2022-12-20T00:46:32;9.05;;;3.85;;
62419;SDS011;48460;51.616;5.426;2022-12-20T00:49:03;9.77;;;3.50;;
62419;SDS011;48460;51.616;5.426;2022-12-20T00:51:29;12.70;;;4.20;;
62419;SDS011;48460;51.616;5.426;2022-12-20T00:53:58;10.27;;;3.90;;
62419;SDS011;48460;51.616;5.426;2022-12-20T00:56:32;10.57;;;3.45;;
62419;SDS011;48460;51.616;5.426;2022-12-20T00:58:58;8.00;;;3.35;;
62419;SDS011;48460;51.616;5.426;2022-12-20T01:01:28;10.20;;;3.70;;
62419;SDS011;48460;51.616;5.426;2022-12-20T01:03:56;8.55;;;4.03;;
62419;SDS011;48460;51.616;5.426;2022-12-20T01:06:25;9.95;;;3.45;;
62419;SDS011;48460;51.616;5.426;2022-12-20T01:08:56;11.55;;;4.00;;
62419;SDS011;48460;51.616;5.426;2022-12-20T01:11:24;11.20;;;3.85;;
62419;SDS011;48460;51.616;5.426;2022-12-20T01:13:57;8.10;;;3.65;;
62419;SDS011;48460;51.616;5.426;2022-12-20T01:16:33;9.50;;;3.63;;
62419;SDS011;48460;51.616;5.426;2022-12-20T01:19:06;11.13;;;3.45;;
62419;SDS011;48460;51.616;5.426;2022-12-20T01:21:34;8.65;;;3.67;;
62419;SDS011;48460;51.616;5.426;2022-12-20T01:24:03;8.30;;;3.33;;
62419;SDS011;48460;51.616;5.426;2022-12-20T01:26:29;8.65;;;3.80;;
62419;SDS011;48460;51.616;5.426;2022-12-20T01:28:58;6.97;;;3.40;;
62419;SDS011;48460;51.616;5.426;2022-12-20T01:31:28;8.30;;;3.60;;
62419;SDS011;48460;51.616;5.426;2022-12-20T01:33:56;7.00;;;3.45;;
62419;SDS011;48460;51.616;5.426;2022-12-20T01:36:23;8.25;;;3.35;;
62419;SDS011;48460;51.616;5.426;2022-12-20T01:38:57;7.60;;;3.63;;
62419;SDS011;48460;51.616;5.426;2022-12-20T01:41:29;8.38;;;4.00;;
62419;SDS011;48460;51.616;5.426;2022-12-20T01:43:56;6.47;;;3.88;;
62419;SDS011;48460;51.616;5.426;2022-12-20T01:46:32;8.95;;;4.03;;
62419;SDS011;48460;51.616;5.426;2022-12-20T01:49:22;7.70;;;4.03;;
62419;SDS011;48460;51.616;5.426;2022-12-20T01:52:00;8.23;;;3.97;;
62419;SDS011;48460;51.616;5.426;2022-12-20T01:54:41;8.00;;;4.60;;
62419;SDS011;48460;51.616;5.426;2022-12-20T01:57:16;10.93;;;4.32;;
62419;SDS011;48460;51.616;5.426;2022-12-20T01:59:47;5.90;;;3.88;;
62419;SDS011;48460;51.616;5.426;2022-12-20T02:02:19;10.30;;;4.10;;
62419;SDS011;48460;51.616;5.426;2022-12-20T02:04:44;8.63;;;4.32;;
62419;SDS011;48460;51.616;5.426;2022-12-20T02:07:23;8.45;;;4.13;;
62419;SDS011;48460;51.616;5.426;2022-12-20T02:09:55;9.48;;;4.25;;
62419;SDS011;48460;51.616;5.426;2022-12-20T02:12:30;9.25;;;4.32;;
62419;SDS011;48460;51.616;5.426;2022-12-20T02:18:20;8.07;;;4.20;;
62419;SDS011;48460;51.616;5.426;2022-12-20T02:38:28;10.18;;;4.00;;
62419;SDS011;48460;51.616;5.426;2022-12-20T02:44:16;8.50;;;4.38;;
62419;SDS011;48460;51.616;5.426;2022-12-20T02:56:05;6.72;;;3.80;;
62419;SDS011;48460;51.616;5.426;2022-12-20T02:58:57;7.68;;;3.47;;
62419;SDS011;48460;51.616;5.426;2022-12-20T03:01:47;6.22;;;3.58;;
62419;SDS011;48460;51.616;5.426;2022-12-20T03:07:41;9.48;;;3.20;;
62419;SDS011;48460;51.616;5.426;2022-12-20T03:10:31;4.85;;;3.00;;
62419;SDS011;48460;51.616;5.426;2022-12-20T03:13:10;6.40;;;3.42;;
62419;SDS011;48460;51.616;5.426;2022-12-20T03:18:40;6.55;;;3.15;;
62419;SDS011;48460;51.616;5.426;2022-12-20T03:24:07;5.85;;;3.10;;
62419;SDS011;48460;51.616;5.426;2022-12-20T03:37:00;5.72;;;3.20;;
62419;SDS011;48460;51.616;5.426;2022-12-20T03:42:54;6.57;;;2.83;;
62419;SDS011;48460;51.616;5.426;2022-12-20T03:45:25;6.35;;;3.03;;
62419;SDS011;48460;51.616;5.426;2022-12-20T03:47:58;6.38;;;2.83;;
62419;SDS011;48460;51.616;5.426;2022-12-20T03:50:59;4.57;;;3.03;;
62419;SDS011;48460;51.616;5.426;2022-12-20T03:53:24;5.32;;;2.95;;
62419;SDS011;48460;51.616;5.426;2022-12-20T03:55:51;6.13;;;2.90;;
62419;SDS011;48460;51.616;5.426;2022-12-20T04:01:22;6.63;;;3.10;;
62419;SDS011;48460;51.616;5.426;2022-12-20T04:03:57;5.90;;;2.83;;
62419;SDS011;48460;51.616;5.426;2022-12-20T04:06:22;7.82;;;3.33;;
62419;SDS011;48460;51.616;5.426;2022-12-20T04:08:54;7.03;;;2.70;;
62419;SDS011;48460;51.616;5.426;2022-12-20T04:11:23;6.03;;;3.20;;
62419;SDS011;48460;51.616;5.426;2022-12-20T04:14:00;5.57;;;2.80;;
62419;SDS011;48460;51.616;5.426;2022-12-20T04:16:29;6.28;;;3.17;;
62419;SDS011;48460;51.616;5.426;2022-12-20T04:19:15;5.60;;;2.97;;
62419;SDS011;48460;51.616;5.426;2022-12-20T04:21:50;6.65;;;2.80;;
62419;SDS011;48460;51.616;5.426;2022-12-20T04:24:26;7.55;;;3.30;;
62419;SDS011;48460;51.616;5.426;2022-12-20T04:26:57;5.03;;;2.85;;
62419;SDS011;48460;51.616;5.426;2022-12-20T04:29:30;5.15;;;2.90;;
62419;SDS011;48460;51.616;5.426;2022-12-20T04:31:56;5.00;;;2.85;;
62419;SDS011;48460;51.616;5.426;2022-12-20T04:37:12;4.63;;;2.75;;
62419;SDS011;48460;51.616;5.426;2022-12-20T04:39:38;6.53;;;2.80;;
62419;SDS011;48460;51.616;5.426;2022-12-20T04:42:04;6.72;;;2.90;;
62419;SDS011;48460;51.616;5.426;2022-12-20T04:44:29;5.82;;;2.80;;
62419;SDS011;48460;51.616;5.426;2022-12-20T04:46:55;6.07;;;2.78;;
62419;SDS011;48460;51.616;5.426;2022-12-20T04:49:28;3.30;;;2.47;;
62419;SDS011;48460;51.616;5.426;2022-12-20T04:51:54;5.53;;;3.00;;
62419;SDS011;48460;51.616;5.426;2022-12-20T04:54:40;5.15;;;2.63;;
62419;SDS011;48460;51.616;5.426;2022-12-20T04:57:10;6.40;;;2.90;;
62419;SDS011;48460;51.616;5.426;2022-12-20T04:59:36;7.50;;;3.15;;
62419;SDS011;48460;51.616;5.426;2022-12-20T05:02:02;5.55;;;2.72;;
62419;SDS011;48460;51.616;5.426;2022-12-20T05:04:30;9.65;;;3.08;;
62419;SDS011;48460;51.616;5.426;2022-12-20T05:07:00;6.72;;;2.85;;
62419;SDS011;48460;51.616;5.426;2022-12-20T05:09:28;6.90;;;3.05;;
62419;SDS011;48460;51.616;5.426;2022-12-20T05:11:54;8.27;;;2.95;;
62419;SDS011;48460;51.616;5.426;2022-12-20T05:14:21;6.10;;;2.95;;
62419;SDS011;48460;51.616;5.426;2022-12-20T05:16:49;6.25;;;3.22;;
62419;SDS011;48460;51.616;5.426;2022-12-20T05:19:15;4.88;;;3.00;;
62419;SDS011;48460;51.616;5.426;2022-12-20T05:21:40;6.88;;;3.17;;
62419;SDS011;48460;51.616;5.426;2022-12-20T05:24:24;5.70;;;2.65;;
62419;SDS011;48460;51.616;5.426;2022-12-20T05:27:08;6.40;;;3.03;;
62419;SDS011;48460;51.616;5.426;2022-12-20T05:29:34;6.70;;;3.28;;
62419;SDS011;48460;51.616;5.426;2022-12-20T05:31:59;6.82;;;2.90;;
62419;SDS011;48460;51.616;5.426;2022-12-20T05:34:25;5.05;;;3.10;;
62419;SDS011;48460;51.616;5.426;2022-12-20T05:36:54;5.68;;;2.92;;
62419;SDS011;48460;51.616;5.426;2022-12-20T05:39:26;8.07;;;2.78;;
62419;SDS011;48460;51.616;5.426;2022-12-20T05:41:52;6.20;;;3.25;;
62419;SDS011;48460;51.616;5.426;2022-12-20T05:44:17;5.82;;;2.83;;
62419;SDS011;48460;51.616;5.426;2022-12-20T05:46:44;6.80;;;3.13;;
62419;SDS011;48460;51.616;5.426;2022-12-20T05:49:14;8.20;;;3.70;;
62419;SDS011;48460;51.616;5.426;2022-12-20T05:51:40;8.25;;;4.50;;
62419;SDS011;48460;51.616;5.426;2022-12-20T05:54:06;9.88;;;4.32;;
62419;SDS011;48460;51.616;5.426;2022-12-20T05:56:31;9.02;;;3.65;;
62419;SDS011;48460;51.616;5.426;2022-12-20T05:58:57;5.60;;;2.83;;
62419;SDS011;48460;51.616;5.426;2022-12-20T06:01:23;5.55;;;2.90;;
62419;SDS011;48460;51.616;5.426;2022-12-20T06:03:49;5.10;;;2.70;;
62419;SDS011;48460;51.616;5.426;2022-12-20T06:06:17;4.70;;;2.78;;
62419;SDS011;48460;51.616;5.426;2022-12-20T06:08:43;7.03;;;2.78;;
62419;SDS011;48460;51.616;5.426;2022-12-20T06:11:08;5.78;;;2.72;;
62419;SDS011;48460;51.616;5.426;2022-12-20T06:13:34;8.55;;;2.80;;
62419;SDS011;48460;51.616;5.426;2022-12-20T06:15:59;4.07;;;2.60;;
62419;SDS011;48460;51.616;5.426;2022-12-20T06:18:28;6.57;;;2.70;;
62419;SDS011;48460;51.616;5.426;2022-12-20T06:21:01;5.00;;;2.70;;
62419;SDS011;48460;51.616;5.426;2022-12-20T06:23:27;5.72;;;2.40;;
62419;SDS011;48460;51.616;5.426;2022-12-20T06:25:52;4.68;;;2.38;;
62419;SDS011;48460;51.616;5.426;2022-12-20T06:28:17;5.55;;;2.50;;
62419;SDS011;48460;51.616;5.426;2022-12-20T06:30:52;7.22;;;2.58;;
62419;SDS011;48460;51.616;5.426;2022-12-20T06:33:18;6.97;;;2.80;;
62419;SDS011;48460;51.616;5.426;2022-12-20T06:35:44;5.78;;;2.78;;
62419;SDS011;48460;51.616;5.426;2022-12-20T06:38:09;4.10;;;2.40;;
62419;SDS011;48460;51.616;5.426;2022-12-20T06:40:36;5.47;;;2.63;;
62419;SDS011;48460;51.616;5.426;2022-12-20T06:43:03;6.95;;;2.70;;
62419;SDS011;48460;51.616;5.426;2022-12-20T06:45:28;5.47;;;2.75;;
62419;SDS011;48460;51.616;5.426;2022-12-20T06:47:54;4.68;;;2.40;;
62419;SDS011;48460;51.616;5.426;2022-12-20T06:50:21;4.65;;;2.63;;
62419;SDS011;48460;51.616;5.426;2022-12-20T06:52:52;5.43;;;2.45;;
62419;SDS011;48460;51.616;5.426;2022-12-20T06:55:18;5.90;;;2.58;;
62419;SDS011;48460;51.616;5.426;2022-12-20T06:57:43;4.80;;;2.40;;
62419;SDS011;48460;51.616;5.426;2022-12-20T07:00:10;8.23;;;2.88;;
62419;SDS011;48460;51.616;5.426;2022-12-20T07:02:37;7.80;;;3.03;;
62419;SDS011;48460;51.616;5.426;2022-12-20T07:05:02;5.18;;;2.60;;
62419;SDS011;48460;51.616;5.426;2022-12-20T07:07:28;6.07;;;2.70;;
62419;SDS011;48460;51.616;5.426;2022-12-20T07:09:54;7.90;;;2.95;;
62419;SDS011;48460;51.616;5.426;2022-12-20T07:12:19;7.00;;;2.45;;
62419;SDS011;48460;51.616;5.426;2022-12-20T07:14:44;7.75;;;2.60;;
62419;SDS011;48460;51.616;5.426;2022-12-20T07:17:10;6.32;;;2.70;;
62419;SDS011;48460;51.616;5.426;2022-12-20T07:19:35;5.65;;;2.60;;
62419;SDS011;48460;51.616;5.426;2022-12-20T07:22:01;4.68;;;2.40;;
62419;SDS011;48460;51.616;5.426;2022-12-20T07:24:27;3.70;;;2.40;;
62419;SDS011;48460;51.616;5.426;2022-12-20T07:26:53;5.32;;;2.50;;
62419;SDS011;48460;51.616;5.426;2022-12-20T07:29:18;7.90;;;2.30;;
62419;SDS011;48460;51.616;5.426;2022-12-20T07:31:44;7.10;;;2.47;;
62419;SDS011;48460;51.616;5.426;2022-12-20T07:34:10;8.25;;;2.45;;
62419;SDS011;48460;51.616;5.426;2022-12-20T07:36:36;5.15;;;2.25;;
62419;SDS011;48460;51.616;5.426;2022-12-20T07:39:01;4.47;;;2.40;;
62419;SDS011;48460;51.616;5.426;2022-12-20T07:41:27;4.90;;;2.35;;
62419;SDS011;48460;51.616;5.426;2022-12-20T07:43:52;6.63;;;2.53;;
62419;SDS011;48460;51.616;5.426;2022-12-20T07:46:18;4.97;;;2.40;;
62419;SDS011;48460;51.616;5.426;2022-12-20T07:48:46;4.40;;;2.50;;
62419;SDS011;48460;51.616;5.426;2022-12-20T07:51:14;6.72;;;2.35;;
62419;SDS011;48460;51.616;5.426;2022-12-20T07:53:56;5.53;;;2.55;;
62419;SDS011;48460;51.616;5.426;2022-12-20T07:56:26;7.38;;;2.80;;
62419;SDS011;48460;51.616;5.426;2022-12-20T07:58:54;6.47;;;2.53;;
62419;SDS011;48460;51.616;5.426;2022-12-20T08:01:22;3.28;;;2.28;;
62419;SDS011;48460;51.616;5.426;2022-12-20T08:03:51;7.63;;;2.40;;
62419;SDS011;48460;51.616;5.426;2022-12-20T08:06:20;4.30;;;2.38;;
62419;SDS011;48460;51.616;5.426;2022-12-20T08:08:46;8.00;;;2.63;;
62419;SDS011;48460;51.616;5.426;2022-12-20T08:11:15;4.20;;;2.60;;
62419;SDS011;48460;51.616;5.426;2022-12-20T08:13:42;5.82;;;2.70;;
62419;SDS011;48460;51.616;5.426;2022-12-20T08:16:08;6.18;;;2.70;;
62419;SDS011;48460;51.616;5.426;2022-12-20T08:18:33;8.05;;;2.70;;
62419;SDS011;48460;51.616;5.426;2022-12-20T08:20:59;6.15;;;2.80;;
62419;SDS011;48460;51.616;5.426;2022-12-20T08:23:25;6.32;;;2.63;;
62419;SDS011;48460;51.616;5.426;2022-12-20T08:25:50;10.27;;;2.72;;
62419;SDS011;48460;51.616;5.426;2022-12-20T08:28:18;4.22;;;2.50;;
62419;SDS011;48460;51.616;5.426;2022-12-20T08:30:44;3.78;;;2.47;;
62419;SDS011;48460;51.616;5.426;2022-12-20T08:33:10;7.78;;;2.67;;
62419;SDS011;48460;51.616;5.426;2022-12-20T08:35:36;9.32;;;3.10;;
62419;SDS011;48460;51.616;5.426;2022-12-20T08:38:02;8.13;;;2.70;;
62419;SDS011;48460;51.616;5.426;2022-12-20T08:40:27;5.82;;;2.90;;
62419;SDS011;48460;51.616;5.426;2022-12-20T08:42:52;5.53;;;2.80;;
62419;SDS011;48460;51.616;5.426;2022-12-20T08:45:18;6.15;;;2.75;;
62419;SDS011;48460;51.616;5.426;2022-12-20T08:47:44;6.60;;;2.83;;
62419;SDS011;48460;51.616;5.426;2022-12-20T08:50:09;5.53;;;2.75;;
62419;SDS011;48460;51.616;5.426;2022-12-20T08:52:37;5.38;;;2.78;;
62419;SDS011;48460;51.616;5.426;2022-12-20T08:55:03;7.85;;;3.10;;
62419;SDS011;48460;51.616;5.426;2022-12-20T08:57:29;7.45;;;2.97;;
62419;SDS011;48460;51.616;5.426;2022-12-20T08:59:55;6.40;;;3.10;;
62419;SDS011;48460;51.616;5.426;2022-12-20T09:02:25;9.03;;;3.30;;
62419;SDS011;48460;51.616;5.426;2022-12-20T09:04:56;7.00;;;3.03;;
62419;SDS011;48460;51.616;5.426;2022-12-20T09:07:32;6.82;;;2.80;;
62419;SDS011;48460;51.616;5.426;2022-12-20T09:10:00;4.57;;;2.50;;
62419;SDS011;48460;51.616;5.426;2022-12-20T09:12:27;12.35;;;3.10;;
62419;SDS011;48460;51.616;5.426;2022-12-20T09:15:03;8.45;;;3.10;;
62419;SDS011;48460;51.616;5.426;2022-12-20T09:17:32;6.63;;;2.80;;
62419;SDS011;48460;51.616;5.426;2022-12-20T09:20:00;9.75;;;3.25;;
62419;SDS011;48460;51.616;5.426;2022-12-20T09:22:56;6.35;;;2.90;;
62419;SDS011;48460;51.616;5.426;2022-12-20T09:25:39;5.70;;;3.03;;
62419;SDS011;48460;51.616;5.426;2022-12-20T09:31:21;9.27;;;3.53;;
62419;SDS011;48460;51.616;5.426;2022-12-20T09:36:24;7.07;;;3.67;;
62419;SDS011;48460;51.616;5.426;2022-12-20T09:38:51;6.97;;;3.45;;
62419;SDS011;48460;51.616;5.426;2022-12-20T09:41:27;8.07;;;3.72;;
62419;SDS011;48460;51.616;5.426;2022-12-20T09:43:53;6.75;;;3.35;;
62419;SDS011;48460;51.616;5.426;2022-12-20T09:46:20;7.88;;;3.88;;
62419;SDS011;48460;51.616;5.426;2022-12-20T09:48:47;4.78;;;3.25;;
62419;SDS011;48460;51.616;5.426;2022-12-20T09:56:44;8.30;;;3.90;;
62419;SDS011;48460;51.616;5.426;2022-12-20T09:59:18;8.52;;;3.85;;
62419;SDS011;48460;51.616;5.426;2022-12-20T10:04:25;8.57;;;3.60;;
62419;SDS011;48460;51.616;5.426;2022-12-20T10:24:20;7.43;;;3.35;;
62419;SDS011;48460;51.616;5.426;2022-12-20T10:26:57;5.65;;;3.30;;
62419;SDS011;48460;51.616;5.426;2022-12-20T10:29:55;5.15;;;2.95;;
62419;SDS011;48460;51.616;5.426;2022-12-20T10:32:47;11.20;;;3.75;;
62419;SDS011;48460;51.616;5.426;2022-12-20T10:38:28;7.47;;;3.45;;
62419;SDS011;48460;51.616;5.426;2022-12-20T10:41:45;7.57;;;3.42;;
62419;SDS011;48460;51.616;5.426;2022-12-20T10:44:22;6.10;;;3.75;;
62419;SDS011;48460;51.616;5.426;2022-12-20T10:46:52;7.25;;;3.42;;
62419;SDS011;48460;51.616;5.426;2022-12-20T10:51:54;8.15;;;3.42;;
62419;SDS011;48460;51.616;5.426;2022-12-20T10:57:51;8.50;;;3.42;;
62419;SDS011;48460;51.616;5.426;2022-12-20T11:00:57;5.88;;;3.22;;
62419;SDS011;48460;51.616;5.426;2022-12-20T11:03:51;9.05;;;3.25;;
62419;SDS011;48460;51.616;5.426;2022-12-20T11:06:41;7.90;;;3.78;;
62419;SDS011;48460;51.616;5.426;2022-12-20T11:09:25;8.85;;;4.70;;
62419;SDS011;48460;51.616;5.426;2022-12-20T11:12:10;8.48;;;4.50;;
62419;SDS011;48460;51.616;5.426;2022-12-20T11:14:48;14.60;;;4.50;;
62419;SDS011;48460;51.616;5.426;2022-12-20T11:17:35;9.63;;;4.15;;
62419;SDS011;48460;51.616;5.426;2022-12-20T11:20:20;9.52;;;5.00;;
62419;SDS011;48460;51.616;5.426;2022-12-20T11:25:42;8.77;;;4.88;;
62419;SDS011;48460;51.616;5.426;2022-12-20T11:28:42;11.23;;;4.43;;
62419;SDS011;48460;51.616;5.426;2022-12-20T11:49:46;10.55;;;3.97;;
62419;SDS011;48460;51.616;5.426;2022-12-20T11:52:31;9.45;;;4.57;;
62419;SDS011;48460;51.616;5.426;2022-12-20T11:57:42;8.00;;;4.38;;
62419;SDS011;48460;51.616;5.426;2022-12-20T12:00:32;8.77;;;4.40;;
62419;SDS011;48460;51.616;5.426;2022-12-20T12:03:13;9.75;;;4.55;;
62419;SDS011;48460;51.616;5.426;2022-12-20T12:06:23;8.90;;;3.97;;
62419;SDS011;48460;51.616;5.426;2022-12-20T12:09:58;11.98;;;5.80;;
62419;SDS011;48460;51.616;5.426;2022-12-20T12:12:57;10.17;;;5.30;;
62419;SDS011;48460;51.616;5.426;2022-12-20T12:36:01;11.75;;;5.40;;
62419;SDS011;48460;51.616;5.426;2022-12-20T12:45:25;13.68;;;6.13;;
62419;SDS011;48460;51.616;5.426;2022-12-20T12:58:02;9.27;;;5.45;;
62419;SDS011;48460;51.616;5.426;2022-12-20T13:27:49;9.93;;;5.03;;
62419;SDS011;48460;51.616;5.426;2022-12-20T13:32:56;9.38;;;5.05;;
62419;SDS011;48460;51.616;5.426;2022-12-20T13:38:57;7.85;;;4.90;;
62419;SDS011;48460;51.616;5.426;2022-12-20T13:42:08;9.60;;;5.22;;
62419;SDS011;48460;51.616;5.426;2022-12-20T13:44:48;9.68;;;4.88;;
62419;SDS011;48460;51.616;5.426;2022-12-20T13:47:25;11.32;;;5.50;;
62419;SDS011;48460;51.616;5.426;2022-12-20T13:50:00;9.82;;;4.97;;
62419;SDS011;48460;51.616;5.426;2022-12-20T13:53:18;9.00;;;5.10;;
62419;SDS011;48460;51.616;5.426;2022-12-20T14:05:33;8.15;;;4.40;;
62419;SDS011;48460;51.616;5.426;2022-12-20T14:08:04;8.45;;;5.20;;
62419;SDS011;48460;51.616;5.426;2022-12-20T14:10:33;9.75;;;5.03;;
62419;SDS011;48460;51.616;5.426;2022-12-20T14:13:12;7.88;;;4.97;;
62419;SDS011;48460;51.616;5.426;2022-12-20T14:15:49;9.02;;;4.93;;
62419;SDS011;48460;51.616;5.426;2022-12-20T14:21:13;10.88;;;5.35;;
62419;SDS011;48460;51.616;5.426;2022-12-20T14:23:48;6.55;;;4.68;;
62419;SDS011;48460;51.616;5.426;2022-12-20T14:26:18;10.15;;;5.38;;
62419;SDS011;48460;51.616;5.426;2022-12-20T14:28:49;8.00;;;5.05;;
62419;SDS011;48460;51.616;5.426;2022-12-20T14:34:29;14.15;;;4.95;;
62419;SDS011;48460;51.616;5.426;2022-12-20T14:40:31;7.72;;;4.88;;
62419;SDS011;48460;51.616;5.426;2022-12-20T14:47:20;7.05;;;4.55;;
62419;SDS011;48460;51.616;5.426;2022-12-20T14:56:55;9.20;;;4.93;;
62419;SDS011;48460;51.616;5.426;2022-12-20T14:59:35;8.68;;;5.13;;
62419;SDS011;48460;51.616;5.426;2022-12-20T15:11:01;10.45;;;5.40;;
62419;SDS011;48460;51.616;5.426;2022-12-20T15:13:30;8.45;;;5.45;;
62419;SDS011;48460;51.616;5.426;2022-12-20T15:15:58;11.53;;;5.73;;
62419;SDS011;48460;51.616;5.426;2022-12-20T15:18:25;9.43;;;5.30;;
62419;SDS011;48460;51.616;5.426;2022-12-20T15:21:00;10.60;;;5.85;;
62419;SDS011;48460;51.616;5.426;2022-12-20T15:23:31;9.90;;;5.45;;
62419;SDS011;48460;51.616;5.426;2022-12-20T15:26:03;10.88;;;5.85;;
62419;SDS011;48460;51.616;5.426;2022-12-20T15:28:29;11.85;;;6.07;;
62419;SDS011;48460;51.616;5.426;2022-12-20T15:31:15;9.38;;;5.82;;
62419;SDS011;48460;51.616;5.426;2022-12-20T15:36:58;9.80;;;5.43;;
62419;SDS011;48460;51.616;5.426;2022-12-20T15:39:26;9.70;;;5.85;;
62419;SDS011;48460;51.616;5.426;2022-12-20T15:42:08;9.80;;;6.10;;
62419;SDS011;48460;51.616;5.426;2022-12-20T15:44:56;11.95;;;6.25;;
62419;SDS011;48460;51.616;5.426;2022-12-20T15:47:28;9.77;;;6.32;;
62419;SDS011;48460;51.616;5.426;2022-12-20T15:50:05;9.98;;;6.80;;
62419;SDS011;48460;51.616;5.426;2022-12-20T15:52:35;15.02;;;6.00;;
62419;SDS011;48460;51.616;5.426;2022-12-20T15:55:01;11.27;;;6.70;;
62419;SDS011;48460;51.616;5.426;2022-12-20T16:05:31;10.73;;;6.80;;
62419;SDS011;48460;51.616;5.426;2022-12-20T16:08:00;11.27;;;6.78;;
62419;SDS011;48460;51.616;5.426;2022-12-20T16:18:46;10.07;;;6.88;;
62419;SDS011;48460;51.616;5.426;2022-12-20T16:33:18;14.80;;;7.35;;
62419;SDS011;48460;51.616;5.426;2022-12-20T16:36:07;14.30;;;8.45;;
62419;SDS011;48460;51.616;5.426;2022-12-20T16:38:46;13.10;;;9.43;;
62419;SDS011;48460;51.616;5.426;2022-12-20T16:55:03;13.20;;;9.00;;
62419;SDS011;48460;51.616;5.426;2022-12-20T17:56:12;18.23;;;11.65;;
62419;SDS011;48460;51.616;5.426;2022-12-20T17:59:48;19.33;;;12.85;;
62419;SDS011;48460;51.616;5.426;2022-12-20T18:03:07;18.08;;;11.82;;
62419;SDS011;48460;51.616;5.426;2022-12-20T18:05:43;18.75;;;11.45;;
62419;SDS011;48460;51.616;5.426;2022-12-20T18:08:16;20.58;;;12.18;;
62419;SDS011;48460;51.616;5.426;2022-12-20T18:10:44;16.50;;;11.30;;
62419;SDS011;48460;51.616;5.426;2022-12-20T18:13:16;20.65;;;13.68;;
62419;SDS011;48460;51.616;5.426;2022-12-20T18:15:51;19.13;;;12.55;;
62419;SDS011;48460;51.616;5.426;2022-12-20T18:21:08;20.48;;;12.35;;
62419;SDS011;48460;51.616;5.426;2022-12-20T18:28:04;17.42;;;11.93;;
62419;SDS011;48460;51.616;5.426;2022-12-20T18:33:58;19.98;;;13.50;;
62419;SDS011;48460;51.616;5.426;2022-12-20T18:36:30;19.92;;;12.75;;
62419;SDS011;48460;51.616;5.426;2022-12-20T18:39:16;19.50;;;12.20;;
62419;SDS011;48460;51.616;5.426;2022-12-20T18:41:52;19.08;;;12.80;;
62419;SDS011;48460;51.616;5.426;2022-12-20T18:44:52;18.42;;;13.00;;
62419;SDS011;48460;51.616;5.426;2022-12-20T18:47:44;22.92;;;13.90;;
62419;SDS011;48460;51.616;5.426;2022-12-20T18:50:40;20.67;;;12.30;;
62419;SDS011;48460;51.616;5.426;2022-12-20T18:53:55;20.23;;;13.20;;
62419;SDS011;48460;51.616;5.426;2022-12-20T18:56:37;21.52;;;13.60;;
62419;SDS011;48460;51.616;5.426;2022-12-20T18:59:16;21.15;;;13.65;;
62419;SDS011;48460;51.616;5.426;2022-12-20T19:05:14;22.73;;;12.73;;
62419;SDS011;48460;51.616;5.426;2022-12-20T19:15:10;22.77;;;14.32;;
62419;SDS011;48460;51.616;5.426;2022-12-20T19:26:27;25.40;;;15.45;;
62419;SDS011;48460;51.616;5.426;2022-12-20T19:46:44;24.38;;;14.85;;
62419;SDS011;48460;51.616;5.426;2022-12-20T20:24:35;23.20;;;15.48;;
62419;SDS011;48460;51.616;5.426;2022-12-20T20:35:05;25.50;;;15.13;;
62419;SDS011;48460;51.616;5.426;2022-12-20T20:57:55;27.65;;;16.08;;
62419;SDS011;48460;51.616;5.426;2022-12-20T21:08:09;24.70;;;16.17;;
62419;SDS011;48460;51.616;5.426;2022-12-20T21:21:33;25.70;;;16.27;;
62419;SDS011;48460;51.616;5.426;2022-12-20T21:24:44;26.75;;;16.02;;
62419;SDS011;48460;51.616;5.426;2022-12-20T21:27:23;26.95;;;16.10;;
62419;SDS011;48460;51.616;5.426;2022-12-20T21:30:03;26.48;;;16.77;;
62419;SDS011;48460;51.616;5.426;2022-12-20T21:32:42;29.92;;;18.50;;
62419;SDS011;48460;51.616;5.426;2022-12-20T21:35:09;29.80;;;17.27;;
62419;SDS011;48460;51.616;5.426;2022-12-20T21:37:38;27.80;;;18.70;;
62419;SDS011;48460;51.616;5.426;2022-12-20T21:40:12;31.65;;;18.40;;
62419;SDS011;48460;51.616;5.426;2022-12-20T21:45:57;29.58;;;18.30;;
62419;SDS011;48460;51.616;5.426;2022-12-20T21:51:39;30.33;;;17.50;;
62419;SDS011;48460;51.616;5.426;2022-12-20T21:54:47;31.38;;;18.77;;
62419;SDS011;48460;51.616;5.426;2022-12-20T21:57:12;36.33;;;21.17;;
62419;SDS011;48460;51.616;5.426;2022-12-20T21:59:48;33.47;;;20.67;;
62419;SDS011;48460;51.616;5.426;2022-12-20T22:05:00;39.45;;;22.65;;
62419;SDS011;48460;51.616;5.426;2022-12-20T22:07:26;38.80;;;22.42;;
62419;SDS011;48460;51.616;5.426;2022-12-20T22:09:54;36.20;;;21.17;;
62419;SDS011;48460;51.616;5.426;2022-12-20T22:12:23;36.10;;;21.25;;
62419;SDS011;48460;51.616;5.426;2022-12-20T22:14:55;36.58;;;21.48;;
62419;SDS011;48460;51.616;5.426;2022-12-20T22:17:21;36.15;;;20.10;;
62419;SDS011;48460;51.616;5.426;2022-12-20T22:19:49;35.42;;;20.40;;
62419;SDS011;48460;51.616;5.426;2022-12-20T22:22:22;37.95;;;20.83;;
62419;SDS011;48460;51.616;5.426;2022-12-20T22:24:51;40.97;;;20.67;;
62419;SDS011;48460;51.616;5.426;2022-12-20T22:27:18;41.78;;;20.33;;
62419;SDS011;48460;51.616;5.426;2022-12-20T22:29:44;36.22;;;19.75;;
62419;SDS011;48460;51.616;5.426;2022-12-20T22:32:15;38.75;;;20.55;;
62419;SDS011;48460;51.616;5.426;2022-12-20T22:34:55;38.55;;;21.00;;
62419;SDS011;48460;51.616;5.426;2022-12-20T22:37:21;39.50;;;20.48;;
62419;SDS011;48460;51.616;5.426;2022-12-20T22:39:48;36.53;;;20.45;;
62419;SDS011;48460;51.616;5.426;2022-12-20T22:42:14;37.65;;;20.40;;
62419;SDS011;48460;51.616;5.426;2022-12-20T22:44:43;39.50;;;19.42;;
62419;SDS011;48460;51.616;5.426;2022-12-20T22:47:12;38.70;;;21.20;;
62419;SDS011;48460;51.616;5.426;2022-12-20T22:49:46;40.25;;;19.95;;
62419;SDS011;48460;51.616;5.426;2022-12-20T22:52:14;44.97;;;21.08;;
62419;SDS011;48460;51.616;5.426;2022-12-20T22:54:39;46.05;;;22.33;;
62419;SDS011;48460;51.616;5.426;2022-12-20T22:57:05;46.75;;;21.73;;
62419;SDS011;48460;51.616;5.426;2022-12-20T22:59:30;44.08;;;22.75;;
62419;SDS011;48460;51.616;5.426;2022-12-20T23:01:57;44.05;;;21.38;;
62419;SDS011;48460;51.616;5.426;2022-12-20T23:04:22;45.33;;;21.52;;
62419;SDS011;48460;51.616;5.426;2022-12-20T23:06:48;47.05;;;22.17;;
62419;SDS011;48460;51.616;5.426;2022-12-20T23:09:13;48.25;;;22.73;;
62419;SDS011;48460;51.616;5.426;2022-12-20T23:11:39;46.03;;;22.42;;
62419;SDS011;48460;51.616;5.426;2022-12-20T23:14:23;48.97;;;23.10;;